createdAt,value
2023-02-16T00:04:26.333Z,14.55
2023-02-16T00:09:18.981Z,13.68
2023-02-16T00:14:11.921Z,13.13
2023-02-16T00:19:27.144Z,14.27
2023-02-16T00:24:19.250Z,13.18
2023-02-16T00:29:30.016Z,13.53
2023-02-16T00:34:34.428Z,12.57
2023-02-16T00:39:27.141Z,13.77
2023-02-16T00:44:32.377Z,13.02
2023-02-16T00:49:24.843Z,14.45
2023-02-16T00:54:16.730Z,13.45
2023-02-16T00:59:15.124Z,13.75
2023-02-16T01:04:17.936Z,11.57
2023-02-16T01:09:33.480Z,12.50
2023-02-16T01:14:26.689Z,12.32
2023-02-16T01:19:18.765Z,12.27
2023-02-16T01:24:12.026Z,11.77
2023-02-16T01:33:56.813Z,12.57
2023-02-16T01:38:48.658Z,12.25
2023-02-16T01:43:49.649Z,11.87
2023-02-16T01:48:41.637Z,12.38
2023-02-16T01:53:40.781Z,10.55
2023-02-16T01:58:54.385Z,10.10
2023-02-16T02:04:04.740Z,11.35
2023-02-16T02:09:02.672Z,11.57
2023-02-16T02:14:30.388Z,11.95
2023-02-16T02:19:22.281Z,8.90
2023-02-16T02:24:51.687Z,10.20
2023-02-16T02:29:53.904Z,11.40
2023-02-16T02:35:01.019Z,9.60
2023-02-16T02:40:22.809Z,10.65
2023-02-16T02:45:24.620Z,9.65
2023-02-16T02:50:36.867Z,9.50
2023-02-16T02:55:47.718Z,11.10
2023-02-16T03:00:44.394Z,10.27
2023-02-16T03:05:38.909Z,10.05
2023-02-16T03:10:51.179Z,12.65
2023-02-16T03:15:44.721Z,9.68
2023-02-16T03:20:55.663Z,10.93
2023-02-16T03:26:06.041Z,11.10
2023-02-16T03:30:58.528Z,9.93
2023-02-16T03:35:50.475Z,10.25
2023-02-16T03:40:43.489Z,9.98
2023-02-16T03:50:30.178Z,10.93
2023-02-16T03:55:22.007Z,9.57
2023-02-16T04:00:14.099Z,11.88
2023-02-16T04:05:06.179Z,10.73
2023-02-16T04:09:58.494Z,9.60
2023-02-16T04:14:50.422Z,11.13
2023-02-16T04:19:42.234Z,10.15
2023-02-16T04:24:34.155Z,12.52
2023-02-16T04:29:26.055Z,9.68
2023-02-16T04:34:17.838Z,10.63
2023-02-16T04:39:09.562Z,10.32
2023-02-16T04:44:01.288Z,10.50
2023-02-16T04:48:53.095Z,9.35
2023-02-16T04:53:44.941Z,9.50
2023-02-16T04:58:36.897Z,9.48
2023-02-16T05:03:28.887Z,9.95
2023-02-16T05:08:21.002Z,12.32
2023-02-16T05:13:31.521Z,10.52
2023-02-16T05:18:23.263Z,11.75
2023-02-16T05:23:15.057Z,11.85
2023-02-16T05:28:06.996Z,10.85
2023-02-16T05:32:58.806Z,11.93
2023-02-16T05:37:50.627Z,10.32
2023-02-16T05:42:42.390Z,13.00
2023-02-16T05:47:34.187Z,13.95
2023-02-16T05:52:26.118Z,13.75
2023-02-16T05:57:17.905Z,12.75
2023-02-16T06:02:10.034Z,14.10
2023-02-16T06:07:02.409Z,13.23
2023-02-16T06:11:54.194Z,12.67
2023-02-16T06:16:48.184Z,13.52
2023-02-16T06:21:40.587Z,12.13
2023-02-16T06:26:32.555Z,13.10
2023-02-16T06:31:25.294Z,12.18
2023-02-16T06:36:18.619Z,13.07
2023-02-16T06:41:10.510Z,13.15
2023-02-16T06:46:02.291Z,13.93
2023-02-16T06:50:54.168Z,11.98
2023-02-16T06:55:46.205Z,12.25
2023-02-16T07:00:38.189Z,13.15
2023-02-16T07:05:30.085Z,13.03
2023-02-16T07:10:21.977Z,12.43
2023-02-16T07:15:13.881Z,11.68
2023-02-16T07:20:06.969Z,13.50
2023-02-16T07:25:00.685Z,14.13
2023-02-16T07:29:52.490Z,13.88
2023-02-16T07:34:45.780Z,11.45
2023-02-16T07:39:37.726Z,12.55
2023-02-16T07:44:29.534Z,13.95
2023-02-16T07:49:21.467Z,11.50
2023-02-16T07:54:13.276Z,10.90
2023-02-16T07:59:05.071Z,12.90
2023-02-16T08:03:57.356Z,11.95
2023-02-16T08:08:49.759Z,11.73
2023-02-16T08:13:41.813Z,12.40
2023-02-16T08:18:33.620Z,11.00
2023-02-16T08:23:25.470Z,10.98
2023-02-16T08:28:17.256Z,10.73
2023-02-16T08:33:10.302Z,11.02
2023-02-16T08:38:02.539Z,10.73
2023-02-16T08:42:54.380Z,9.70
2023-02-16T08:47:46.163Z,11.50
2023-02-16T08:52:38.731Z,13.38
2023-02-16T08:57:34.594Z,10.70
2023-02-16T09:02:27.697Z,10.90
2023-02-16T09:07:20.927Z,12.40
2023-02-16T09:12:12.701Z,9.57
2023-02-16T09:17:04.900Z,10.52
2023-02-16T09:21:56.892Z,10.40
2023-02-16T09:26:49.787Z,11.23
2023-02-16T09:36:34.136Z,11.00
2023-02-16T09:41:41.092Z,10.20
2023-02-16T09:46:34.201Z,10.15
2023-02-16T09:51:34.890Z,10.65
2023-02-16T09:56:32.882Z,10.95
2023-02-16T10:01:40.215Z,12.05
2023-02-16T10:06:41.244Z,9.82
2023-02-16T10:11:46.655Z,10.63
2023-02-16T10:16:51.309Z,9.98
2023-02-16T10:21:44.346Z,10.02
2023-02-16T10:26:51.887Z,11.75
2023-02-16T10:31:49.170Z,10.88
2023-02-16T10:37:02.720Z,10.02
2023-02-16T10:42:18.402Z,11.25
2023-02-16T10:47:23.959Z,11.15
2023-02-16T10:52:15.957Z,10.35
2023-02-16T10:57:13.144Z,10.17
2023-02-16T11:02:17.512Z,11.77
2023-02-16T11:07:12.802Z,10.98
2023-02-16T11:12:32.900Z,11.90
2023-02-16T11:17:25.500Z,10.73
2023-02-16T11:22:35.640Z,12.27
2023-02-16T11:27:27.450Z,10.95
2023-02-16T11:32:21.565Z,12.07
2023-02-16T11:37:28.482Z,13.75
2023-02-16T11:42:30.604Z,14.05
2023-02-16T11:47:22.498Z,10.87
2023-02-16T11:52:23.544Z,13.77
2023-02-16T11:57:23.016Z,12.50
2023-02-16T12:02:36.435Z,13.45
2023-02-16T12:08:04.235Z,16.27
2023-02-16T12:13:03.092Z,11.63
2023-02-16T12:18:12.936Z,13.63
2023-02-16T12:23:33.481Z,13.73
2023-02-16T12:28:37.956Z,12.65
2023-02-16T12:33:49.495Z,12.80
2023-02-16T12:39:02.563Z,13.23
2023-02-16T12:43:58.871Z,13.57
2023-02-16T12:48:58.926Z,13.98
2023-02-16T12:54:29.609Z,14.30
2023-02-16T12:59:39.675Z,14.52
2023-02-16T13:04:37.069Z,14.35
2023-02-16T13:09:40.683Z,14.43
2023-02-16T13:14:34.640Z,15.35
2023-02-16T13:19:27.082Z,15.10
2023-02-16T13:24:35.483Z,14.38
2023-02-16T13:29:45.350Z,14.52
2023-02-16T13:34:43.612Z,14.30
2023-02-16T13:39:47.116Z,15.75
2023-02-16T13:44:48.755Z,13.75
2023-02-16T13:49:44.580Z,16.63
2023-02-16T13:54:40.595Z,14.52
2023-02-16T13:59:35.981Z,13.27
2023-02-16T14:04:30.837Z,13.23
2023-02-16T14:09:37.949Z,14.77
2023-02-16T14:14:56.584Z,14.65
2023-02-16T14:20:19.474Z,13.77
2023-02-16T14:25:23.349Z,13.73
2023-02-16T14:30:38.993Z,15.00
2023-02-16T14:35:38.855Z,16.65
2023-02-16T14:40:41.285Z,12.27
2023-02-16T14:46:10.536Z,13.50
2023-02-16T14:51:29.949Z,13.65
2023-02-16T14:56:43.485Z,13.18
2023-02-16T15:01:42.763Z,12.93
2023-02-16T15:06:42.163Z,15.13
2023-02-16T15:12:10.020Z,13.07
2023-02-16T15:17:06.753Z,13.48
2023-02-16T15:22:19.112Z,17.00
2023-02-16T15:27:21.800Z,13.50
2023-02-16T15:32:16.590Z,14.45
2023-02-16T15:37:29.678Z,13.02
2023-02-16T15:47:18.458Z,12.80
2023-02-16T15:52:33.134Z,12.30
2023-02-16T15:57:30.876Z,14.10
2023-02-16T16:02:37.499Z,15.70
2023-02-16T16:07:47.368Z,14.27
2023-02-16T16:12:39.289Z,15.50
2023-02-16T16:17:33.327Z,14.38
2023-02-16T16:22:35.263Z,12.65
2023-02-16T16:40:11.288Z,176.60
2023-02-16T16:45:20.615Z,176.88
2023-02-16T16:50:15.231Z,168.60
2023-02-16T16:55:19.378Z,181.05
2023-02-16T17:00:12.143Z,171.48
2023-02-16T17:05:04.508Z,158.63
2023-02-16T17:09:56.341Z,157.87
2023-02-16T17:14:48.140Z,143.85
2023-02-16T17:19:41.455Z,142.23
2023-02-16T17:24:34.234Z,134.57
2023-02-16T17:29:26.075Z,139.13
2023-02-16T17:34:17.888Z,136.27
2023-02-16T17:39:09.756Z,119.65
2023-02-16T17:44:01.615Z,128.80
2023-02-16T17:48:55.325Z,126.10
2023-02-16T17:53:47.266Z,121.57
2023-02-16T17:58:39.530Z,123.07
2023-02-16T18:03:31.381Z,101.77
2023-02-16T18:08:23.436Z,113.60
2023-02-16T18:13:16.052Z,102.45
2023-02-16T18:18:08.506Z,115.72
2023-02-16T18:23:00.516Z,106.88
2023-02-16T18:27:52.439Z,102.53
2023-02-16T18:32:45.765Z,98.60
2023-02-16T18:37:38.298Z,101.43
2023-02-16T18:42:30.156Z,91.15
2023-02-16T18:47:22.023Z,86.57
2023-02-16T18:52:13.889Z,86.28
2023-02-16T18:57:05.925Z,91.05
2023-02-16T19:01:59.453Z,85.20
2023-02-16T19:06:51.869Z,79.63
2023-02-16T19:11:43.778Z,75.72
2023-02-16T19:16:35.883Z,75.35
2023-02-16T19:21:27.810Z,80.90
2023-02-16T19:26:19.735Z,72.90
2023-02-16T19:31:29.190Z,75.25
2023-02-16T19:36:22.698Z,65.40
2023-02-16T19:41:19.340Z,71.80
2023-02-16T19:46:12.154Z,64.18
2023-02-16T19:51:06.057Z,66.15
2023-02-16T19:55:58.002Z,65.88
2023-02-16T20:00:49.995Z,64.93
2023-02-16T20:05:41.963Z,63.97
2023-02-16T20:10:39.512Z,63.15
2023-02-16T20:15:31.548Z,55.22
2023-02-16T20:20:23.845Z,54.50
2023-02-16T20:25:16.191Z,53.97
2023-02-16T20:30:11.316Z,57.87
2023-02-16T20:35:07.222Z,55.60
2023-02-16T20:39:59.164Z,49.47
2023-02-16T20:44:51.061Z,49.33
2023-02-16T20:49:43.023Z,52.88
2023-02-16T20:54:35.151Z,50.70
2023-02-16T20:59:27.091Z,47.07
2023-02-16T21:04:19.177Z,49.50
2023-02-16T21:09:11.891Z,46.90
2023-02-16T21:14:08.062Z,48.13
2023-02-16T21:18:59.968Z,46.42
2023-02-16T21:23:53.757Z,47.90
2023-02-16T21:28:45.803Z,39.90
2023-02-16T21:33:38.330Z,42.40
2023-02-16T21:38:30.213Z,41.65
2023-02-16T21:43:22.008Z,38.92
2023-02-16T21:48:32.742Z,39.10
2023-02-16T21:53:24.593Z,40.42
2023-02-16T21:58:16.938Z,37.88
2023-02-16T22:03:09.275Z,39.38
2023-02-16T22:08:01.529Z,38.23
2023-02-16T22:12:54.045Z,39.83
2023-02-16T22:17:45.905Z,39.13
2023-02-16T22:22:37.833Z,33.60
2023-02-16T22:27:29.660Z,37.67
2023-02-16T22:32:21.503Z,39.33
2023-02-16T22:37:13.381Z,34.45
2023-02-16T22:42:05.206Z,33.47
2023-02-16T22:46:57.107Z,34.38
2023-02-16T22:51:49.076Z,32.85
2023-02-16T22:56:41.199Z,31.65
2023-02-16T23:01:33.138Z,33.20
2023-02-16T23:06:34.042Z,30.80
2023-02-16T23:11:26.714Z,31.35
2023-02-16T23:16:21.862Z,32.20
2023-02-16T23:21:19.492Z,29.55
2023-02-16T23:26:11.668Z,30.20
2023-02-16T23:31:03.785Z,29.60
2023-02-16T23:35:55.992Z,30.00
2023-02-16T23:41:04.949Z,33.00
2023-02-16T23:45:57.178Z,25.90
2023-02-16T23:50:50.792Z,33.00
2023-02-16T23:55:42.637Z,31.23
